Time;durP1;ratioP1;P1;durP2;ratioP2;P2;SDS_P1;SDS_P2;PMS_P1;PMS_P2;Temp;Humidity;BMP_temperature;BMP_pressure;BME280_temperature;BME280_humidity;BME280_pressure;Samples;Min_cycle;Max_cycle;Signal;HPM_P1;HPM_P2
2021/06/05 00:01:37;;;;;;;7.53;6.20;;;19.70;51.70;;;;;;5096140;28;20161;-84
2021/06/05 00:04:03;;;;;;;6.57;5.38;;;19.70;51.70;;;;;;5096118;28;20153;-84
2021/06/05 00:06:34;;;;;;;5.70;5.10;;;19.70;51.50;;;;;;5113608;28;20153;-83
2021/06/05 00:08:59;;;;;;;5.82;5.22;;;19.70;51.60;;;;;;5061601;28;20222;-84
2021/06/05 00:11:28;;;;;;;6.57;5.25;;;19.70;51.50;;;;;;5095732;28;20219;-85
2021/06/05 00:13:56;;;;;;;6.38;5.75;;;19.70;51.50;;;;;;5096156;28;20600;-85
2021/06/05 00:16:27;;;;;;;6.70;5.28;;;19.70;51.50;;;;;;5079067;28;20241;-84
2021/06/05 00:18:54;;;;;;;7.03;5.80;;;19.70;51.50;;;;;;5113448;28;20156;-84
2021/06/05 00:21:22;;;;;;;6.88;5.75;;;19.70;51.50;;;;;;5096226;28;20157;-83
2021/06/05 00:23:49;;;;;;;6.47;5.75;;;19.70;51.60;;;;;;5113211;28;20149;-83
2021/06/05 00:26:18;;;;;;;6.63;5.93;;;19.70;51.50;;;;;;5097201;28;20206;-84
2021/06/05 00:28:47;;;;;;;6.57;5.82;;;19.70;51.60;;;;;;5078071;28;20208;-83
2021/06/05 00:31:15;;;;;;;6.35;5.40;;;19.70;51.60;;;;;;5077736;28;20238;-82
2021/06/05 00:33:45;;;;;;;6.15;5.15;;;19.70;51.60;;;;;;5077783;28;20190;-85
2021/06/05 00:36:11;;;;;;;6.45;5.63;;;19.70;51.60;;;;;;5095154;28;20263;-85
2021/06/05 00:38:38;;;;;;;5.97;5.35;;;19.70;51.60;;;;;;5112773;28;20153;-85
2021/06/05 00:41:04;;;;;;;6.25;5.43;;;19.70;51.60;;;;;;5112734;28;20180;-83
2021/06/05 00:43:35;;;;;;;7.95;5.88;;;19.70;51.60;;;;;;5078407;28;20164;-84
2021/06/05 00:46:02;;;;;;;7.88;6.38;;;19.70;51.60;;;;;;5078348;28;20181;-85
2021/06/05 00:48:30;;;;;;;7.30;5.72;;;19.60;51.60;;;;;;5095567;28;20577;-83
2021/06/05 00:50:56;;;;;;;5.78;5.15;;;19.70;51.60;;;;;;5061232;28;20702;-85
2021/06/05 00:53:23;;;;;;;6.22;5.20;;;19.70;51.60;;;;;;5112688;28;20176;-86
2021/06/05 00:55:51;;;;;;;6.07;5.47;;;19.70;51.60;;;;;;5112609;28;20160;-85
2021/06/05 00:58:17;;;;;;;6.13;5.35;;;19.70;51.60;;;;;;5079198;28;20165;-85
2021/06/05 01:00:46;;;;;;;6.25;5.65;;;19.70;51.60;;;;;;5095359;28;20224;-84
2021/06/05 01:03:11;;;;;;;6.63;5.45;;;19.70;51.60;;;;;;5112699;28;20658;-84
2021/06/05 01:05:39;;;;;;;6.22;5.25;;;19.60;51.60;;;;;;5113012;28;20145;-83
2021/06/05 01:08:26;;;;;;;6.78;6.03;;;19.70;51.70;;;;;;5094627;28;20326;-84
2021/06/05 01:10:56;;;;;;;5.80;5.20;;;19.60;51.60;;;;;;5062497;28;20220;-85
2021/06/05 01:13:27;;;;;;;6.50;5.53;;;19.60;51.70;;;;;;5099221;28;20168;-84
2021/06/05 01:15:57;;;;;;;6.25;5.40;;;19.70;51.70;;;;;;5098733;28;20229;-83
2021/06/05 01:18:31;;;;;;;7.72;6.55;;;19.60;51.70;;;;;;5099066;28;20277;-86
2021/06/05 01:21:36;;;;;;;7.45;6.35;;;19.60;51.80;;;;;;5099362;28;20168;-83
2021/06/05 01:24:19;;;;;;;6.65;5.60;;;19.60;51.70;;;;;;5100204;28;20179;-82
2021/06/05 01:26:52;;;;;;;6.25;5.45;;;19.60;51.70;;;;;;5100010;28;20153;-83
2021/06/05 01:29:29;;;;;;;6.07;5.40;;;19.60;51.80;;;;;;5064239;28;20202;-84
2021/06/05 01:32:03;;;;;;;8.63;5.93;;;19.60;51.80;;;;;;5081554;28;20212;-84
2021/06/05 01:34:47;;;;;;;6.03;5.35;;;19.60;51.80;;;;;;5080705;28;20263;-83
2021/06/05 01:37:15;;;;;;;7.47;5.57;;;19.60;51.80;;;;;;5083427;28;20207;-82
2021/06/05 01:39:45;;;;;;;6.93;5.65;;;19.60;51.80;;;;;;5115027;28;20153;-85
2021/06/05 01:42:21;;;;;;;6.28;5.50;;;19.60;51.80;;;;;;5063780;28;20663;-83
2021/06/05 01:44:52;;;;;;;6.88;5.95;;;19.60;51.90;;;;;;5081207;28;20183;-82
2021/06/05 01:47:20;;;;;;;6.40;5.72;;;19.60;51.90;;;;;;5080401;28;20664;-83
2021/06/05 01:49:48;;;;;;;6.43;5.47;;;19.60;51.90;;;;;;5062750;28;20281;-82
2021/06/05 01:52:21;;;;;;;6.10;5.10;;;19.60;51.90;;;;;;5080117;28;20222;-82
2021/06/05 01:54:56;;;;;;;6.25;5.10;;;19.60;51.90;;;;;;5063948;28;20195;-81
2021/06/05 01:57:27;;;;;;;5.90;5.30;;;19.50;51.80;;;;;;5079881;28;20549;-81
2021/06/05 01:59:55;;;;;;;6.00;5.40;;;19.60;51.90;;;;;;5080210;28;20173;-81
2021/06/05 02:02:22;;;;;;;7.10;6.00;;;19.50;51.90;;;;;;5079781;28;20180;-82
2021/06/05 02:04:50;;;;;;;6.20;5.57;;;19.50;51.90;;;;;;5080681;28;20180;-82
2021/06/05 02:07:18;;;;;;;6.43;5.53;;;19.50;52.50;;;;;;5079670;28;20180;-82
2021/06/05 02:09:44;;;;;;;6.50;5.78;;;19.50;51.80;;;;;;5080041;28;20180;-83
2021/06/05 02:12:30;;;;;;;6.45;5.40;;;19.50;51.80;;;;;;5096959;28;20207;-83
2021/06/05 02:15:08;;;;;;;6.03;5.43;;;19.60;51.90;;;;;;5096908;28;20176;-83
2021/06/05 02:17:35;;;;;;;5.97;5.13;;;19.50;51.80;;;;;;5080726;28;20214;-81
2021/06/05 02:20:06;;;;;;;5.80;5.20;;;19.50;51.80;;;;;;5080274;28;20237;-82
2021/06/05 02:22:32;;;;;;;6.75;5.50;;;19.60;51.80;;;;;;5096624;28;20152;-83
2021/06/05 02:24:59;;;;;;;6.30;5.35;;;19.60;51.90;;;;;;5097243;28;20156;-82
2021/06/05 02:27:25;;;;;;;6.75;5.88;;;19.50;51.80;;;;;;5114229;27;20257;-82
2021/06/05 02:29:51;;;;;;;6.43;5.63;;;19.50;51.90;;;;;;5113615;27;20149;-82
2021/06/05 02:32:22;;;;;;;6.55;5.60;;;19.50;51.90;;;;;;5114262;28;20211;-82
2021/06/05 02:34:48;;;;;;;6.60;5.90;;;19.50;51.90;;;;;;5096440;28;20161;-83
2021/06/05 02:37:15;;;;;;;6.32;5.30;;;19.50;51.90;;;;;;5113493;28;20512;-81
2021/06/05 02:39:42;;;;;;;6.93;5.57;;;19.60;52.00;;;;;;5113629;28;20146;-81
2021/06/05 02:42:09;;;;;;;6.32;5.30;;;19.50;51.90;;;;;;5096178;28;20187;-82
2021/06/05 02:44:35;;;;;;;6.40;5.22;;;19.50;51.90;;;;;;5096158;28;20203;-83
2021/06/05 02:47:05;;;;;;;7.85;5.50;;;19.60;51.90;;;;;;5096667;28;20596;-82
2021/06/05 02:49:32;;;;;;;6.55;5.55;;;19.50;51.90;;;;;;5094532;28;20208;-83
2021/06/05 02:52:03;;;;;;;7.22;5.80;;;19.50;51.90;;;;;;5094721;28;20196;-81
2021/06/05 02:54:29;;;;;;;5.75;5.15;;;19.50;51.90;;;;;;5078366;28;20169;-82
2021/06/05 02:56:56;;;;;;;6.72;5.70;;;19.50;51.90;;;;;;5094363;28;20157;-82
2021/06/05 02:59:23;;;;;;;6.30;5.30;;;19.50;51.90;;;;;;5076855;28;20192;-82
2021/06/05 03:01:50;;;;;;;7.25;5.90;;;19.50;52.00;;;;;;5076959;28;20229;-82
2021/06/05 03:04:15;;;;;;;6.53;5.38;;;19.50;52.00;;;;;;5093592;28;20177;-82
2021/06/05 03:06:41;;;;;;;6.15;5.35;;;19.50;52.00;;;;;;5077367;28;20262;-82
2021/06/05 03:09:07;;;;;;;5.50;4.80;;;19.50;52.00;;;;;;5094059;28;20157;-83
2021/06/05 03:11:33;;;;;;;7.32;5.65;;;19.50;52.00;;;;;;5076740;28;20234;-83
2021/06/05 03:13:59;;;;;;;6.38;5.40;;;19.50;52.00;;;;;;5110952;28;20184;-82
2021/06/05 03:16:25;;;;;;;6.22;5.63;;;19.50;52.00;;;;;;5094820;28;20145;-83
2021/06/05 03:18:52;;;;;;;5.82;5.22;;;19.50;52.10;;;;;;5111091;28;20153;-82
2021/06/05 03:21:19;;;;;;;6.72;5.70;;;19.50;52.00;;;;;;5076024;28;20219;-82
2021/06/05 03:23:47;;;;;;;7.38;5.95;;;19.40;51.90;;;;;;5076360;28;20181;-82
2021/06/05 03:26:14;;;;;;;6.65;5.80;;;19.50;52.00;;;;;;5076644;28;20181;-82
2021/06/05 03:28:41;;;;;;;6.47;5.50;;;19.50;52.00;;;;;;5076422;28;20200;-82
2021/06/05 03:31:06;;;;;;;7.50;5.60;;;19.50;52.00;;;;;;5076970;28;20239;-83
2021/06/05 03:33:32;;;;;;;5.97;5.25;;;19.50;52.00;;;;;;5110088;28;20181;-82
2021/06/05 03:35:58;;;;;;;7.13;5.88;;;19.50;52.00;;;;;;5076515;28;20161;-83
2021/06/05 03:38:25;;;;;;;7.00;5.50;;;19.50;51.90;;;;;;5093618;28;20146;-83
2021/06/05 03:40:50;;;;;;;7.53;5.78;;;19.50;52.00;;;;;;5093197;28;20169;-80
2021/06/05 03:43:16;;;;;;;6.57;5.68;;;19.50;51.90;;;;;;5093039;28;20160;-81
2021/06/05 03:45:42;;;;;;;6.03;5.25;;;19.60;52.00;;;;;;5109924;28;20157;-81
2021/06/05 03:48:08;;;;;;;6.25;5.57;;;19.50;51.90;;;;;;5109851;28;20184;-82
2021/06/05 03:50:37;;;;;;;6.03;5.18;;;19.60;51.90;;;;;;5092668;28;20229;-82
2021/06/05 03:53:04;;;;;;;6.45;5.43;;;19.60;51.90;;;;;;5076457;28;20177;-83
2021/06/05 03:55:31;;;;;;;6.30;5.47;;;19.60;52.00;;;;;;5094004;28;20156;-83
2021/06/05 03:58:00;;;;;;;6.80;5.88;;;19.60;51.90;;;;;;5092232;28;20188;-83
2021/06/05 04:00:31;;;;;;;6.78;5.63;;;19.60;51.90;;;;;;5075224;28;20208;-81
2021/06/05 04:02:59;;;;;;;6.18;5.50;;;19.60;51.80;;;;;;5075269;28;20223;-81
2021/06/05 04:05:27;;;;;;;6.75;5.70;;;19.60;51.80;;;;;;5091862;28;20512;-84
2021/06/05 04:07:53;;;;;;;6.55;5.82;;;19.60;51.70;;;;;;5092125;28;20180;-82
2021/06/05 04:10:22;;;;;;;6.65;5.40;;;19.70;51.70;;;;;;5092608;28;20681;-82
2021/06/05 04:12:49;;;;;;;6.72;5.03;;;19.70;51.80;;;;;;5075178;28;20177;-83
2021/06/05 04:15:18;;;;;;;6.65;5.40;;;19.60;51.70;;;;;;5092433;28;20194;-81
2021/06/05 04:17:46;;;;;;;6.90;5.30;;;19.60;51.70;;;;;;5058189;28;20188;-83
2021/06/05 04:20:15;;;;;;;5.75;5.15;;;19.60;51.70;;;;;;5058270;28;20257;-83
2021/06/05 04:22:43;;;;;;;6.50;5.07;;;19.60;51.60;;;;;;5075180;28;20195;-83
2021/06/05 04:25:11;;;;;;;6.30;5.05;;;19.70;51.70;;;;;;5074937;28;20173;-81
2021/06/05 04:27:38;;;;;;;5.82;5.22;;;19.60;51.60;;;;;;5092283;28;20184;-82
2021/06/05 04:30:10;;;;;;;6.53;5.47;;;19.60;51.60;;;;;;5075684;28;20662;-81
2021/06/05 04:32:37;;;;;;;5.80;4.90;;;19.70;51.60;;;;;;5075445;28;20279;-81
2021/06/05 04:35:06;;;;;;;6.68;5.40;;;19.70;51.60;;;;;;5075152;28;20263;-83
2021/06/05 04:37:33;;;;;;;6.20;5.25;;;19.70;51.60;;;;;;5074804;28;20204;-84
2021/06/05 04:40:00;;;;;;;5.95;5.28;;;19.70;51.60;;;;;;5091190;28;20180;-82
2021/06/05 04:42:28;;;;;;;6.22;5.35;;;19.70;51.60;;;;;;5074404;28;20604;-82
2021/06/05 04:44:55;;;;;;;6.07;5.47;;;19.70;51.50;;;;;;5076892;28;20180;-83
2021/06/05 04:47:22;;;;;;;5.68;5.07;;;19.80;51.50;;;;;;5061520;28;20180;-82
2021/06/05 04:49:49;;;;;;;5.78;5.18;;;19.80;51.30;;;;;;5077713;28;20694;-81
2021/06/05 04:52:15;;;;;;;6.18;5.35;;;19.80;51.40;;;;;;5094969;28;20216;-82
2021/06/05 04:54:42;;;;;;;6.35;5.55;;;19.80;51.40;;;;;;5077869;28;20188;-81
2021/06/05 04:57:09;;;;;;;6.40;5.60;;;19.80;51.40;;;;;;5077921;28;20180;-81
2021/06/05 04:59:36;;;;;;;6.13;5.22;;;19.80;51.50;;;;;;5077816;28;20253;-82
2021/06/05 05:02:03;;;;;;;6.35;5.60;;;19.80;51.30;;;;;;5078258;28;20180;-81
2021/06/05 05:04:29;;;;;;;6.15;5.40;;;19.80;51.30;;;;;;5077765;28;20185;-82
2021/06/05 05:06:56;;;;;;;5.88;5.10;;;19.80;51.20;;;;;;5094757;28;20666;-83
2021/06/05 05:09:22;;;;;;;5.80;5.00;;;19.80;51.20;;;;;;5095402;28;20153;-82
2021/06/05 05:11:49;;;;;;;5.82;5.22;;;19.90;51.20;;;;;;5078552;28;20204;-82
2021/06/05 05:14:16;;;;;;;5.82;5.20;;;19.90;51.20;;;;;;5077593;28;20183;-81
2021/06/05 05:16:43;;;;;;;5.85;5.25;;;19.90;51.10;;;;;;5060492;28;20188;-81
2021/06/05 05:19:10;;;;;;;5.72;4.72;;;19.90;51.10;;;;;;5060703;28;20173;-81
2021/06/05 05:21:36;;;;;;;6.00;5.18;;;20.00;51.00;;;;;;5077827;28;20196;-83
2021/06/05 05:24:02;;;;;;;5.70;5.10;;;19.90;51.00;;;;;;5096350;28;20611;-81
2021/06/05 05:26:28;;;;;;;6.90;5.25;;;19.90;51.00;;;;;;5094925;28;20157;-81
2021/06/05 05:28:54;;;;;;;6.35;5.32;;;19.90;51.00;;;;;;5112398;28;20515;-82
2021/06/05 05:31:21;;;;;;;5.78;5.18;;;20.00;51.00;;;;;;5094829;28;20207;-81
2021/06/05 05:33:47;;;;;;;6.30;5.45;;;20.00;51.00;;;;;;5078247;28;20522;-81
2021/06/05 05:36:15;;;;;;;6.53;5.07;;;19.90;51.00;;;;;;5094888;28;20164;-82
2021/06/05 05:38:42;;;;;;;6.47;5.00;;;20.00;51.00;;;;;;5078090;28;20165;-82
2021/06/05 05:41:09;;;;;;;6.60;5.30;;;19.90;51.00;;;;;;5078289;28;20164;-81
2021/06/05 05:43:35;;;;;;;5.38;4.80;;;20.00;51.00;;;;;;5094740;28;20607;-80
2021/06/05 05:46:01;;;;;;;6.65;5.55;;;20.00;50.80;;;;;;5094656;28;20635;-82
2021/06/05 05:48:27;;;;;;;5.75;4.95;;;20.00;50.90;;;;;;5094979;28;20164;-81
2021/06/05 05:50:53;;;;;;;5.82;5.00;;;20.00;50.80;;;;;;5095549;28;20691;-83
2021/06/05 05:53:19;;;;;;;5.88;4.97;;;20.00;50.90;;;;;;5096026;28;20244;-81
2021/06/05 05:55:45;;;;;;;6.78;5.57;;;20.00;50.80;;;;;;5094840;28;20228;-81
2021/06/05 05:58:14;;;;;;;6.47;5.03;;;20.10;50.80;;;;;;5094404;28;20161;-83
2021/06/05 06:00:41;;;;;;;6.28;5.18;;;20.00;50.60;;;;;;5077946;28;20218;-81
2021/06/05 06:03:07;;;;;;;5.82;5.22;;;20.20;50.70;;;;;;5094745;28;20231;-81
2021/06/05 06:05:33;;;;;;;5.95;5.35;;;20.10;50.50;;;;;;5095436;28;20172;-82
2021/06/05 06:08:00;;;;;;;6.03;5.35;;;20.20;50.50;;;;;;5094509;28;20580;-81
2021/06/05 06:10:27;;;;;;;5.65;5.05;;;20.10;50.40;;;;;;5094118;28;20573;-82
2021/06/05 06:12:52;;;;;;;5.90;5.30;;;20.20;50.50;;;;;;5095261;28;20240;-82
2021/06/05 06:15:21;;;;;;;5.60;5.00;;;20.20;50.30;;;;;;5094153;28;20253;-82
2021/06/05 06:17:47;;;;;;;5.38;4.88;;;20.20;50.30;;;;;;5094284;28;20163;-83
2021/06/05 06:20:32;;;;;;;5.47;4.88;;;20.20;50.30;;;;;;5093932;28;20545;-81
2021/06/05 06:22:58;;;;;;;5.97;5.22;;;20.20;50.50;;;;;;5096546;28;20171;-82
2021/06/05 06:25:26;;;;;;;6.03;5.15;;;20.30;50.40;;;;;;5111024;28;20236;-82
2021/06/05 06:27:51;;;;;;;5.97;5.20;;;20.30;50.40;;;;;;5094000;28;20209;-82
2021/06/05 06:30:20;;;;;;;5.43;4.72;;;20.30;50.20;;;;;;5093822;28;20576;-82
2021/06/05 06:32:52;;;;;;;5.85;4.93;;;20.20;50.40;;;;;;5095209;28;20156;-82
2021/06/05 06:35:20;;;;;;;6.78;5.43;;;20.30;50.40;;;;;;5093705;28;20180;-83
2021/06/05 06:37:46;;;;;;;5.97;5.30;;;20.20;50.40;;;;;;5093857;28;20157;-82
2021/06/05 06:40:12;;;;;;;6.35;4.80;;;20.20;50.40;;;;;;5077256;28;20574;-82
2021/06/05 06:42:38;;;;;;;6.03;5.20;;;20.20;50.30;;;;;;5077225;28;20172;-82
2021/06/05 06:45:04;;;;;;;6.05;5.15;;;20.30;50.30;;;;;;5094754;28;20620;-82
2021/06/05 06:47:31;;;;;;;5.32;4.72;;;20.30;50.40;;;;;;5110470;28;20153;-82
2021/06/05 06:49:56;;;;;;;5.30;4.80;;;20.30;50.30;;;;;;5094507;28;20227;-83
2021/06/05 06:52:25;;;;;;;5.57;4.97;;;20.40;50.00;;;;;;5076340;28;20204;-82
2021/06/05 06:54:52;;;;;;;5.43;4.85;;;20.40;50.10;;;;;;5093527;28;20156;-82
2021/06/05 06:57:19;;;;;;;6.35;4.97;;;20.30;50.20;;;;;;5076368;28;20206;-82
2021/06/05 06:59:45;;;;;;;5.90;5.30;;;20.40;50.10;;;;;;5093315;28;20655;-82
2021/06/05 07:02:10;;;;;;;5.70;4.75;;;20.40;50.10;;;;;;5093517;28;20157;-81
2021/06/05 07:04:36;;;;;;;5.45;4.72;;;20.40;50.10;;;;;;5093146;28;20160;-83
2021/06/05 07:07:03;;;;;;;6.00;5.20;;;20.30;50.30;;;;;;5092525;28;20506;-82
2021/06/05 07:09:31;;;;;;;5.97;5.07;;;20.40;50.10;;;;;;5076290;28;20152;-81
2021/06/05 07:11:57;;;;;;;5.45;4.85;;;20.40;50.10;;;;;;5093961;28;20240;-82
2021/06/05 07:14:22;;;;;;;6.07;5.20;;;20.30;50.30;;;;;;5110292;28;20156;-82
2021/06/05 07:16:48;;;;;;;5.40;4.57;;;20.30;50.30;;;;;;5076000;28;20160;-81
2021/06/05 07:19:14;;;;;;;5.78;4.90;;;20.30;50.20;;;;;;5092920;28;20156;-83
2021/06/05 07:21:39;;;;;;;6.25;5.10;;;20.40;50.10;;;;;;5076208;28;20196;-83
2021/06/05 07:24:05;;;;;;;6.45;4.88;;;20.40;50.20;;;;;;5092846;28;20161;-82
2021/06/05 07:26:31;;;;;;;5.53;4.88;;;20.30;50.10;;;;;;5092759;28;20180;-83
2021/06/05 07:28:59;;;;;;;5.47;4.80;;;20.30;50.10;;;;;;5092850;28;20564;-82
2021/06/05 07:31:28;;;;;;;5.43;4.78;;;20.40;50.10;;;;;;5092636;28;20191;-82
2021/06/05 07:33:54;;;;;;;5.60;5.00;;;20.40;50.20;;;;;;5093009;28;20149;-83
2021/06/05 07:36:24;;;;;;;6.03;5.43;;;20.40;50.10;;;;;;5092915;28;20200;-82
2021/06/05 07:38:49;;;;;;;6.35;4.97;;;20.40;50.10;;;;;;5092938;28;20161;-82
2021/06/05 07:41:16;;;;;;;5.45;4.85;;;20.40;50.20;;;;;;5109616;28;20240;-82
2021/06/05 07:43:42;;;;;;;5.43;4.80;;;20.40;50.10;;;;;;5093631;28;20202;-82
2021/06/05 07:46:08;;;;;;;6.28;5.13;;;20.50;50.10;;;;;;5092363;28;20161;-82
2021/06/05 07:48:35;;;;;;;5.85;5.25;;;20.50;50.00;;;;;;5092367;28;20640;-82
2021/06/05 07:51:01;;;;;;;6.00;5.25;;;20.50;49.80;;;;;;5093259;28;20323;-81
2021/06/05 07:53:27;;;;;;;5.45;4.80;;;20.50;49.90;;;;;;5093569;28;20161;-82
2021/06/05 07:55:52;;;;;;;5.93;5.32;;;20.50;49.90;;;;;;5092606;28;20267;-82
2021/06/05 07:58:18;;;;;;;5.90;5.00;;;20.60;50.00;;;;;;5109289;28;20274;-82
2021/06/05 08:00:44;;;;;;;5.72;4.85;;;20.60;49.80;;;;;;5109374;28;20152;-82
2021/06/05 08:03:10;;;;;;;5.57;5.05;;;20.50;49.90;;;;;;5093465;28;20153;-82
2021/06/05 08:05:36;;;;;;;5.25;4.32;;;20.50;49.90;;;;;;5093398;28;20167;-82
2021/06/05 08:08:03;;;;;;;6.18;5.43;;;20.50;50.00;;;;;;5109433;28;20179;-82
2021/06/05 08:10:28;;;;;;;5.50;4.80;;;20.50;50.00;;;;;;5075602;28;20214;-81
2021/06/05 08:12:54;;;;;;;5.57;5.07;;;20.50;49.80;;;;;;5092215;28;20616;-83
2021/06/05 08:15:23;;;;;;;5.72;4.82;;;20.60;49.80;;;;;;5093523;28;20153;-82
2021/06/05 08:17:48;;;;;;;5.32;4.82;;;20.50;50.00;;;;;;5094257;28;20519;-82
2021/06/05 08:20:17;;;;;;;5.63;4.90;;;20.60;49.90;;;;;;5094415;28;20599;-81
2021/06/05 08:22:43;;;;;;;5.95;5.03;;;20.60;49.80;;;;;;5096022;28;20495;-82
2021/06/05 08:25:09;;;;;;;7.00;4.82;;;20.50;50.00;;;;;;5096135;28;20157;-83
2021/06/05 08:27:37;;;;;;;6.57;4.75;;;20.50;50.20;;;;;;5079352;28;20157;-81
2021/06/05 08:30:04;;;;;;;6.15;5.18;;;20.40;50.10;;;;;;5096301;28;20157;-81
2021/06/05 08:32:29;;;;;;;5.43;4.93;;;20.50;50.10;;;;;;5096831;28;20230;-81
2021/06/05 08:34:55;;;;;;;5.53;4.93;;;20.50;50.20;;;;;;5097161;28;20630;-82
2021/06/05 08:37:20;;;;;;;5.55;4.72;;;20.50;50.10;;;;;;5113789;28;20567;-81
2021/06/05 08:39:46;;;;;;;7.93;5.50;;;20.40;50.30;;;;;;5096801;28;20165;-81
2021/06/05 08:42:18;;;;;;;5.80;5.10;;;20.40;50.30;;;;;;5097652;28;20161;-81
2021/06/05 08:44:44;;;;;;;5.22;4.70;;;20.40;50.30;;;;;;5113378;27;20157;-81
2021/06/05 08:47:13;;;;;;;6.03;4.88;;;20.30;50.20;;;;;;5097738;28;20161;-81
2021/06/05 08:49:41;;;;;;;6.20;5.28;;;20.50;50.10;;;;;;5079162;28;20633;-81
2021/06/05 08:52:28;;;;;;;5.63;4.88;;;20.50;50.10;;;;;;5095867;28;20200;-81
2021/06/05 08:55:00;;;;;;;5.50;4.78;;;20.40;50.20;;;;;;5096120;28;20534;-83
2021/06/05 08:57:43;;;;;;;5.57;4.95;;;20.40;50.30;;;;;;5095727;28;20193;-81
2021/06/05 09:00:26;;;;;;;5.93;5.25;;;20.50;50.10;;;;;;5095935;28;20202;-82
2021/06/05 09:02:58;;;;;;;6.30;5.18;;;20.60;49.90;;;;;;5096380;28;20198;-81
2021/06/05 09:05:31;;;;;;;5.40;4.90;;;20.60;50.00;;;;;;5096315;28;20149;-83
2021/06/05 09:07:57;;;;;;;6.20;5.43;;;20.60;50.10;;;;;;5094828;28;20181;-81
2021/06/05 09:10:23;;;;;;;6.75;5.75;;;20.40;50.70;;;;;;5079091;28;20164;-82
2021/06/05 09:12:49;;;;;;;6.05;5.25;;;20.30;50.90;;;;;;5078905;28;20168;-81
2021/06/05 09:15:26;;;;;;;6.25;4.97;;;20.20;51.10;;;;;;5096055;28;20210;-82
2021/06/05 09:17:55;;;;;;;6.47;5.32;;;20.30;51.00;;;;;;5097408;28;20159;-80
2021/06/05 09:20:38;;;;;;;5.55;4.90;;;20.30;51.00;;;;;;5096577;28;20169;-82
2021/06/05 09:23:29;;;;;;;5.68;5.07;;;20.50;50.80;;;;;;5096535;28;20164;-82
2021/06/05 09:25:56;;;;;;;5.97;5.32;;;20.40;50.80;;;;;;5096428;28;20153;-81
2021/06/05 09:28:30;;;;;;;7.05;5.25;;;20.50;50.50;;;;;;5078587;28;20160;-81
2021/06/05 09:31:12;;;;;;;6.05;5.10;;;20.50;50.40;;;;;;5094171;28;20200;-81
2021/06/05 09:33:38;;;;;;;5.30;4.80;;;20.50;50.50;;;;;;5096556;28;20159;-82
2021/06/05 09:36:23;;;;;;;6.38;5.30;;;20.50;50.50;;;;;;5096720;28;20153;-81
2021/06/05 09:38:56;;;;;;;5.75;5.15;;;20.60;50.50;;;;;;5095118;28;20169;-81
2021/06/05 09:41:26;;;;;;;5.85;5.20;;;20.50;50.50;;;;;;5078575;28;20168;-81
2021/06/05 09:43:53;;;;;;;6.57;5.22;;;20.40;50.80;;;;;;5096005;28;20156;-81
2021/06/05 09:46:24;;;;;;;6.07;5.13;;;20.50;51.00;;;;;;5095233;28;20165;-81
2021/06/05 09:48:52;;;;;;;6.47;4.97;;;20.40;51.20;;;;;;5094501;28;20611;-81
2021/06/05 09:51:34;;;;;;;7.53;5.05;;;20.40;51.00;;;;;;5094077;28;20274;-81
2021/06/05 09:54:05;;;;;;;6.00;5.18;;;20.50;51.10;;;;;;5094568;28;20161;-81
2021/06/05 09:56:35;;;;;;;12.65;5.07;;;20.50;51.00;;;;;;5095197;28;20202;-82
2021/06/05 09:59:14;;;;;;;6.03;4.82;;;20.40;51.20;;;;;;5096723;28;20179;-82
2021/06/05 10:01:40;;;;;;;7.03;4.93;;;20.40;51.40;;;;;;5096788;28;20161;-81
2021/06/05 10:04:13;;;;;;;12.88;5.35;;;20.40;51.40;;;;;;5094899;28;20608;-82
2021/06/05 10:06:48;;;;;;;16.83;5.72;;;20.40;51.60;;;;;;5095875;28;20661;-81
2021/06/05 10:09:35;;;;;;;68.70;9.40;;;20.50;51.40;;;;;;5094477;28;20180;-81
2021/06/05 10:12:13;;;;;;;60.40;8.90;;;20.30;51.60;;;;;;5096542;28;20211;-81
2021/06/05 10:15:03;;;;;;;70.70;10.43;;;20.30;51.60;;;;;;5096329;28;20171;-82
2021/06/05 10:17:46;;;;;;;89.75;11.73;;;20.30;51.60;;;;;;5080220;28;20180;-81
2021/06/05 10:20:33;;;;;;;64.53;9.63;;;20.40;51.60;;;;;;5095140;28;20239;-83
2021/06/05 10:23:07;;;;;;;59.78;9.27;;;20.30;51.70;;;;;;5045973;28;20203;-82
2021/06/05 10:25:41;;;;;;;64.55;9.52;;;20.30;51.90;;;;;;5094379;28;20631;-83
2021/06/05 10:28:16;;;;;;;46.42;8.20;;;20.30;51.70;;;;;;5076598;28;20191;-82
2021/06/05 10:30:51;;;;;;;36.75;7.18;;;20.20;51.70;;;;;;5093303;28;20180;-82
2021/06/05 10:33:52;;;;;;;54.25;8.30;;;20.40;51.50;;;;;;5077945;28;20203;-82
2021/06/05 10:36:28;;;;;;;46.28;8.07;;;20.40;51.50;;;;;;5060126;28;20204;-81
2021/06/05 10:38:59;;;;;;;28.48;7.00;;;20.40;51.60;;;;;;5076419;28;20267;-82
2021/06/05 10:41:31;;;;;;;23.80;6.85;;;20.40;51.70;;;;;;5077396;28;20192;-81
2021/06/05 10:44:00;;;;;;;24.60;5.75;;;20.30;51.70;;;;;;5096187;28;20183;-81
2021/06/05 10:46:43;;;;;;;30.20;6.60;;;20.40;51.60;;;;;;5062139;28;20271;-81
2021/06/05 10:49:24;;;;;;;29.42;6.95;;;20.40;51.60;;;;;;5080972;28;20187;-81
2021/06/05 10:51:58;;;;;;;32.15;6.97;;;20.40;51.60;;;;;;5095160;28;20200;-82
2021/06/05 10:54:27;;;;;;;26.85;7.10;;;20.50;51.50;;;;;;5077635;28;20181;-82
2021/06/05 10:57:05;;;;;;;27.42;6.90;;;20.50;51.50;;;;;;5078298;28;20215;-81
2021/06/05 10:59:51;;;;;;;24.25;6.70;;;20.40;51.50;;;;;;5095974;28;20209;-82
2021/06/05 11:02:44;;;;;;;38.85;7.20;;;20.40;51.50;;;;;;5081560;28;20210;-82
2021/06/05 11:05:41;;;;;;;24.88;6.57;;;20.40;51.80;;;;;;5077821;28;20185;-82
2021/06/05 11:08:28;;;;;;;22.92;6.65;;;20.40;51.80;;;;;;5094494;28;20157;-82
2021/06/05 11:11:33;;;;;;;24.40;6.25;;;20.40;51.70;;;;;;5095077;28;20189;-82
2021/06/05 11:14:11;;;;;;;28.02;6.63;;;20.40;51.60;;;;;;5049295;28;20272;-82
2021/06/05 11:17:16;;;;;;;24.10;6.03;;;20.30;51.60;;;;;;5078557;28;20639;-82
2021/06/05 11:19:48;;;;;;;32.75;7.18;;;20.40;51.60;;;;;;5080864;28;20530;-82
2021/06/05 11:22:20;;;;;;;20.50;6.50;;;20.50;51.50;;;;;;5094460;28;20192;-82
2021/06/05 11:25:24;;;;;;;24.75;6.57;;;20.40;51.50;;;;;;5094579;28;20184;-82
2021/06/05 11:27:53;;;;;;;25.15;6.03;;;20.40;51.60;;;;;;5095523;28;20176;-82
2021/06/05 11:30:38;;;;;;;18.35;6.53;;;20.40;51.40;;;;;;5094021;28;20181;-81
2021/06/05 11:33:09;;;;;;;22.00;6.15;;;20.40;51.60;;;;;;5077171;28;20198;-82
2021/06/05 11:35:46;;;;;;;24.17;6.07;;;20.50;51.40;;;;;;5094650;28;20235;-82
2021/06/05 11:38:49;;;;;;;21.45;6.00;;;20.50;51.40;;;;;;5059628;28;20182;-82
2021/06/05 11:41:48;;;;;;;28.98;7.00;;;20.50;51.40;;;;;;5093543;28;20175;-82
2021/06/05 11:44:27;;;;;;;25.13;6.22;;;20.60;51.40;;;;;;5092667;28;20181;-82
2021/06/05 11:46:56;;;;;;;22.90;6.53;;;20.60;51.40;;;;;;5076943;28;20176;-82
2021/06/05 11:49:44;;;;;;;27.95;6.45;;;20.60;51.30;;;;;;5076140;28;20208;-82
2021/06/05 11:52:49;;;;;;;24.38;6.40;;;20.60;51.20;;;;;;5128096;27;20204;-82
2021/06/05 11:55:29;;;;;;;21.15;6.70;;;20.60;51.20;;;;;;5061729;28;20547;-82
2021/06/05 11:58:11;;;;;;;20.35;6.25;;;20.60;51.30;;;;;;5077626;28;20168;-83
2021/06/05 12:00:44;;;;;;;20.00;6.00;;;20.60;51.20;;;;;;5076923;28;20508;-82
2021/06/05 12:03:22;;;;;;;16.42;5.93;;;20.60;51.30;;;;;;5076418;28;20185;-82
2021/06/05 12:05:49;;;;;;;25.27;6.50;;;20.60;51.30;;;;;;5076800;28;20263;-82
2021/06/05 12:08:29;;;;;;;24.05;6.13;;;20.60;51.30;;;;;;5092801;28;20188;-82
2021/06/05 12:10:56;;;;;;;22.05;7.13;;;20.60;51.40;;;;;;5093983;28;20185;-82
2021/06/05 12:13:34;;;;;;;19.30;6.00;;;20.50;51.50;;;;;;5076749;28;20188;-82
2021/06/05 12:16:18;;;;;;;16.00;5.85;;;20.50;51.40;;;;;;5094186;28;20229;-82
2021/06/05 12:18:46;;;;;;;21.45;6.90;;;20.70;51.20;;;;;;5077996;28;20233;-82
2021/06/05 12:21:33;;;;;;;12.30;5.93;;;20.70;51.20;;;;;;5076353;28;20211;-82
2021/06/05 12:24:16;;;;;;;13.20;5.65;;;20.70;51.10;;;;;;5093854;28;20608;-82
2021/06/05 12:26:53;;;;;;;22.10;6.47;;;20.70;51.00;;;;;;5095385;28;20635;-81
2021/06/05 12:29:24;;;;;;;21.80;6.70;;;20.70;51.10;;;;;;5078540;28;20580;-82
2021/06/05 12:31:51;;;;;;;20.08;6.05;;;20.70;51.20;;;;;;5097411;28;20291;-82
2021/06/05 12:34:31;;;;;;;14.57;5.95;;;20.60;51.20;;;;;;5100436;28;20157;-82
2021/06/05 12:37:00;;;;;;;27.25;6.03;;;20.70;51.20;;;;;;5101987;28;20176;-83
2021/06/05 12:39:48;;;;;;;20.70;6.30;;;20.70;51.10;;;;;;5100714;28;20153;-82
2021/06/05 12:42:21;;;;;;;16.10;6.15;;;20.80;51.00;;;;;;5120526;28;20153;-82
2021/06/05 12:44:50;;;;;;;21.25;6.60;;;20.70;51.00;;;;;;5082439;28;20183;-82
2021/06/05 12:47:31;;;;;;;16.50;5.47;;;20.70;51.10;;;;;;5081852;28;20177;-82
2021/06/05 12:49:57;;;;;;;14.57;6.05;;;20.70;51.30;;;;;;5098685;28;20236;-82
2021/06/05 12:52:28;;;;;;;21.15;6.10;;;20.70;51.10;;;;;;5099344;28;20181;-82
2021/06/05 12:55:20;;;;;;;19.83;5.85;;;20.80;51.00;;;;;;5082847;28;20624;-82
2021/06/05 12:57:55;;;;;;;13.98;5.68;;;20.90;51.00;;;;;;5115945;28;20222;-82
2021/06/05 13:00:39;;;;;;;15.13;6.28;;;20.80;50.90;;;;;;5082222;28;20180;-82
2021/06/05 13:03:26;;;;;;;18.75;5.82;;;20.70;51.20;;;;;;5083355;28;20181;-82
2021/06/05 13:06:15;;;;;;;17.33;6.43;;;20.70;51.30;;;;;;5083652;28;20188;-82